createdAt,value
2018-09-21T00:01:07.726Z,99230.12
2018-09-21T00:03:37.962Z,99229.50
2018-09-21T00:06:09.192Z,99230.18
2018-09-21T00:08:40.144Z,99224.44
2018-09-21T00:11:12.408Z,99223.47
2018-09-21T00:13:43.196Z,99222.02
2018-09-21T00:16:13.769Z,99217.66
2018-09-21T00:18:44.011Z,99220.24
2018-09-21T00:21:15.044Z,99219.55
2018-09-21T00:23:45.681Z,99213.95
2018-09-21T00:26:15.955Z,99209.14
2018-09-21T00:28:46.734Z,99207.27
2018-09-21T00:31:17.828Z,99208.36
2018-09-21T00:33:48.340Z,99207.77
2018-09-21T00:36:18.895Z,99209.97
2018-09-21T00:38:50.086Z,99208.22
2018-09-21T00:41:20.872Z,99207.04
2018-09-21T00:43:51.369Z,99203.28
2018-09-21T00:46:22.695Z,99198.32
2018-09-21T00:48:53.389Z,99199.20
2018-09-21T00:51:23.943Z,99197.03
2018-09-21T00:53:54.468Z,99196.53
2018-09-21T00:56:24.972Z,99191.98
2018-09-21T00:58:55.874Z,99192.27
2018-09-21T01:01:26.672Z,99195.01
2018-09-21T01:03:58.183Z,99189.27
2018-09-21T01:06:28.964Z,99194.53
2018-09-21T01:08:59.735Z,99190.78
2018-09-21T01:11:30.289Z,99202.55
2018-09-21T01:14:01.460Z,99186.31
2018-09-21T01:16:32.957Z,99190.27
2018-09-21T01:19:04.325Z,99191.20
2018-09-21T01:21:34.881Z,99194.09
2018-09-21T01:24:07.241Z,99188.23
2018-09-21T01:26:37.799Z,99191.36
2018-09-21T01:29:08.094Z,99185.16
2018-09-21T01:31:38.948Z,99186.31
2018-09-21T01:34:09.546Z,99185.16
2018-09-21T01:36:39.954Z,99180.56
2018-09-21T01:39:11.207Z,99180.27
2018-09-21T01:41:41.892Z,99185.47
2018-09-21T01:44:12.585Z,99185.59
2018-09-21T01:46:42.855Z,99183.36
2018-09-21T01:49:13.381Z,99178.30
2018-09-21T01:51:43.943Z,99181.09
2018-09-21T01:54:14.211Z,99177.78
2018-09-21T01:56:44.706Z,99172.30
2018-09-21T01:59:15.430Z,99167.73
2018-09-21T02:01:45.836Z,99158.37
2018-09-21T02:04:16.189Z,99164.47
2018-09-21T02:06:49.192Z,99162.73
2018-09-21T02:09:19.717Z,99154.98
2018-09-21T02:11:50.735Z,99154.23
2018-09-21T02:14:21.534Z,99148.89
2018-09-21T02:16:52.320Z,99145.77
2018-09-21T02:19:22.924Z,99146.08
2018-09-21T02:21:57.496Z,99144.65
2018-09-21T02:24:28.127Z,99147.81
2018-09-21T02:26:58.664Z,99151.67
2018-09-21T02:29:28.898Z,99150.73
2018-09-21T02:31:59.321Z,99146.98
2018-09-21T02:34:29.909Z,99144.62
2018-09-21T02:37:00.155Z,99147.53
2018-09-21T02:39:30.388Z,99147.55
2018-09-21T02:42:00.649Z,99155.27
2018-09-21T02:44:30.968Z,99150.41
2018-09-21T02:47:01.642Z,99145.43
2018-09-21T02:49:32.028Z,99146.77
2018-09-21T02:52:02.736Z,99149.56
2018-09-21T02:54:33.252Z,99145.75
2018-09-21T02:57:03.973Z,99142.00
2018-09-21T02:59:34.816Z,99145.17
2018-09-21T03:02:05.080Z,99147.57
2018-09-21T03:04:39.528Z,99142.86
2018-09-21T03:07:10.072Z,99143.45
2018-09-21T03:09:40.729Z,99139.87
2018-09-21T03:12:11.279Z,99135.76
2018-09-21T03:14:41.957Z,99134.30
2018-09-21T03:17:13.093Z,99128.70
2018-09-21T03:19:43.875Z,99132.79
2018-09-21T03:22:15.532Z,99131.14
2018-09-21T03:24:46.031Z,99123.23
2018-09-21T03:27:17.104Z,99121.56
2018-09-21T03:29:48.201Z,99119.80
2018-09-21T03:32:18.714Z,99111.04
2018-09-21T03:34:49.292Z,99110.21
2018-09-21T03:37:20.085Z,99087.29
2018-09-21T03:39:50.574Z,99104.73
2018-09-21T03:42:20.809Z,99099.86
2018-09-21T03:44:52.291Z,99110.97
2018-09-21T03:47:22.840Z,99101.55
2018-09-21T03:49:53.437Z,99106.33
2018-09-21T03:52:24.377Z,99107.91
2018-09-21T03:54:54.968Z,99101.42
2018-09-21T03:57:25.549Z,99102.56
2018-09-21T03:59:57.003Z,99093.47
2018-09-21T04:02:27.290Z,99102.33
2018-09-21T04:04:57.609Z,99100.53
2018-09-21T04:07:29.446Z,99102.45
2018-09-21T04:09:59.741Z,99099.31
2018-09-21T04:12:36.007Z,99095.17
2018-09-21T04:15:16.057Z,99104.37
2018-09-21T04:17:46.886Z,99097.72
2018-09-21T04:20:17.401Z,99072.98
2018-09-21T04:22:59.129Z,99088.27
2018-09-21T04:25:32.990Z,99093.24
2018-09-21T04:28:04.505Z,99088.77
2018-09-21T04:30:35.299Z,99095.92
2018-09-21T04:33:05.856Z,99100.80
2018-09-21T04:35:36.372Z,99096.36
2018-09-21T04:38:07.387Z,99095.62
2018-09-21T04:40:37.608Z,99095.06
2018-09-21T04:43:08.267Z,99091.05
2018-09-21T04:45:38.797Z,99088.14
2018-09-21T04:48:10.383Z,99091.30
2018-09-21T04:50:41.751Z,99085.70
2018-09-21T04:53:11.987Z,99088.88
2018-09-21T04:55:42.320Z,99088.50
2018-09-21T04:58:12.864Z,99088.86
2018-09-21T05:00:43.538Z,99083.77
2018-09-21T05:03:14.078Z,99088.14
2018-09-21T05:05:46.608Z,99085.34
2018-09-21T05:08:17.725Z,99087.81
2018-09-21T05:10:48.225Z,99081.61
2018-09-21T05:13:21.776Z,99090.12
2018-09-21T05:15:52.908Z,99088.38
2018-09-21T05:18:23.402Z,99090.09
2018-09-21T05:20:54.126Z,99087.55
2018-09-21T05:23:24.727Z,99088.15
2018-09-21T05:25:55.328Z,99088.27
2018-09-21T05:28:25.659Z,99088.15
2018-09-21T05:30:56.395Z,99089.23
2018-09-21T05:33:26.816Z,99097.73
2018-09-21T05:35:57.374Z,99105.59
2018-09-21T05:38:28.183Z,99103.20
2018-09-21T05:40:58.713Z,99100.53
2018-09-21T05:43:29.919Z,99106.44
2018-09-21T05:46:00.204Z,99108.66
2018-09-21T05:48:30.997Z,99107.94
2018-09-21T05:51:03.904Z,99104.14
2018-09-21T05:53:35.041Z,99101.60
2018-09-21T05:56:05.689Z,99094.80
2018-09-21T05:58:36.382Z,99091.29
2018-09-21T06:01:07.292Z,99093.09
2018-09-21T06:03:37.885Z,99092.00
2018-09-21T06:06:08.157Z,99088.63
2018-09-21T06:08:38.712Z,99085.02
2018-09-21T06:11:11.456Z,99074.14
2018-09-21T06:13:42.483Z,99075.71
2018-09-21T06:16:13.398Z,99083.09
2018-09-21T06:18:44.089Z,99078.85
2018-09-21T06:21:15.005Z,99077.38
2018-09-21T06:23:45.658Z,99086.16
2018-09-21T06:26:16.909Z,99073.59
2018-09-21T06:28:47.696Z,99049.44
2018-09-21T06:31:18.288Z,99071.06
2018-09-21T06:33:48.597Z,99076.21
2018-09-21T06:36:19.089Z,99072.05
2018-09-21T06:38:50.200Z,99066.31
2018-09-21T06:41:20.837Z,99065.19
2018-09-21T06:43:51.385Z,99064.73
2018-09-21T06:46:21.674Z,99002.34
2018-09-21T06:48:52.383Z,99063.30
2018-09-21T06:51:23.132Z,99052.23
2018-09-21T06:53:54.006Z,99051.30
2018-09-21T06:56:24.548Z,99047.98
2018-09-21T06:58:56.504Z,99049.53
2018-09-21T07:01:27.170Z,99059.94
2018-09-21T07:03:58.280Z,99049.41
2018-09-21T07:06:28.810Z,99055.45
2018-09-21T07:08:59.302Z,99060.89
2018-09-21T07:11:29.833Z,99060.11
2018-09-21T07:14:00.581Z,99056.92
2018-09-21T07:16:30.792Z,99048.53
2018-09-21T07:19:01.321Z,99045.12
2018-09-21T07:21:31.636Z,99044.35
2018-09-21T07:24:02.372Z,99041.41
2018-09-21T07:26:32.677Z,99037.33
2018-09-21T07:29:03.055Z,99043.63
2018-09-21T07:31:33.876Z,99033.36
2018-09-21T07:34:04.568Z,99032.45
2018-09-21T07:36:35.455Z,99030.85
2018-09-21T07:39:07.486Z,99035.16
2018-09-21T07:41:37.732Z,99035.91
2018-09-21T07:44:08.272Z,99027.11
2018-09-21T07:46:38.993Z,99028.05
2018-09-21T07:49:10.110Z,99025.48
2018-09-21T07:51:41.310Z,99023.46
2018-09-21T07:54:11.944Z,99024.75
2018-09-21T07:56:42.984Z,99024.19
2018-09-21T07:59:13.544Z,99023.80
2018-09-21T08:01:44.880Z,99013.84
2018-09-21T08:04:15.197Z,99010.98
2018-09-21T08:06:45.414Z,99012.33
2018-09-21T08:09:16.033Z,99014.35
2018-09-21T08:11:46.857Z,99011.69
2018-09-21T08:14:17.696Z,99013.14
2018-09-21T08:16:48.374Z,99008.55
2018-09-21T08:19:19.853Z,99011.03
2018-09-21T08:21:50.842Z,99011.42
2018-09-21T08:24:21.473Z,99008.53
2018-09-21T08:26:51.896Z,99009.50
2018-09-21T08:29:23.821Z,99004.67
2018-09-21T08:31:55.563Z,99000.88
2018-09-21T08:34:26.553Z,99006.94
2018-09-21T08:36:57.411Z,98998.61
2018-09-21T08:39:28.125Z,98998.28
2018-09-21T08:41:58.668Z,98991.48
2018-09-21T08:44:29.308Z,98995.64
2018-09-21T08:46:59.768Z,98965.66
2018-09-21T08:49:30.304Z,98973.69
2018-09-21T08:52:01.140Z,98975.91
2018-09-21T08:54:31.846Z,98979.71
2018-09-21T08:57:02.073Z,98971.30
2018-09-21T08:59:32.309Z,98969.63
2018-09-21T09:02:02.555Z,98966.63
2018-09-21T09:04:32.838Z,98958.16
2018-09-21T09:07:03.077Z,98960.19
2018-09-21T09:09:34.323Z,98931.25
2018-09-21T09:12:05.268Z,98949.91
2018-09-21T09:14:35.757Z,98950.24
2018-09-21T09:17:06.481Z,98938.80
2018-09-21T09:19:36.985Z,98938.27
2018-09-21T09:22:08.051Z,98937.73
2018-09-21T09:24:38.428Z,98941.98
2018-09-21T09:27:09.972Z,98949.73
2018-09-21T09:29:40.210Z,98940.52
2018-09-21T09:32:10.715Z,98944.88
2018-09-21T09:34:41.391Z,98923.06
2018-09-21T09:37:12.252Z,98929.08
2018-09-21T09:39:42.803Z,98933.61
2018-09-21T09:42:13.308Z,98931.64
2018-09-21T09:44:44.417Z,98928.05
2018-09-21T09:47:14.940Z,98927.73
2018-09-21T09:49:45.475Z,98924.13
2018-09-21T09:52:16.339Z,98918.83
2018-09-21T09:54:46.892Z,98927.47
2018-09-21T09:57:17.706Z,98915.77
2018-09-21T09:59:48.217Z,98913.19
2018-09-21T10:02:18.749Z,98914.36
2018-09-21T10:04:48.972Z,98905.16
2018-09-21T10:07:19.496Z,98904.92
2018-09-21T10:09:50.031Z,98903.77
2018-09-21T10:12:20.580Z,98896.37
2018-09-21T10:14:51.112Z,98894.77
2018-09-21T10:17:21.613Z,98885.17
2018-09-21T10:19:53.705Z,98872.63
2018-09-21T10:22:24.532Z,98884.08
2018-09-21T10:24:55.053Z,98879.75
2018-09-21T10:27:25.623Z,98875.59
2018-09-21T10:29:56.740Z,98870.19
2018-09-21T10:32:27.265Z,98864.68
2018-09-21T10:34:58.358Z,98853.98
2018-09-21T10:37:28.937Z,98857.97
2018-09-21T10:39:59.850Z,98866.27
2018-09-21T10:42:30.374Z,98861.30
2018-09-21T10:45:00.861Z,98857.17
2018-09-21T10:47:32.483Z,98849.66
2018-09-21T10:50:03.082Z,98848.41
2018-09-21T10:52:34.331Z,98848.13
2018-09-21T10:55:10.556Z,98826.81
2018-09-21T10:57:41.287Z,98829.97
2018-09-21T11:00:15.136Z,98823.08
2018-09-21T11:02:45.956Z,98820.11
2018-09-21T11:05:16.462Z,98821.72
2018-09-21T11:07:47.006Z,98828.72
2018-09-21T11:10:19.096Z,98829.67
2018-09-21T11:12:49.603Z,98825.23
2018-09-21T11:15:20.206Z,98825.20
2018-09-21T11:17:50.688Z,98827.98
2018-09-21T11:20:21.003Z,98826.94
2018-09-21T11:22:51.224Z,98822.89
2018-09-21T11:25:21.738Z,98823.70
2018-09-21T11:27:52.266Z,98799.53
2018-09-21T11:30:23.089Z,98805.78
2018-09-21T11:32:53.858Z,98811.24
2018-09-21T11:35:24.632Z,98804.39
2018-09-21T11:37:55.144Z,98802.72
2018-09-21T11:40:25.366Z,98692.41
2018-09-21T11:42:55.681Z,98800.20
2018-09-21T11:45:26.045Z,98804.25
2018-09-21T11:47:56.643Z,98796.58
2018-09-21T11:50:27.128Z,98792.25
2018-09-21T11:52:57.407Z,98791.22
2018-09-21T11:55:28.208Z,98796.08
2018-09-21T11:57:58.823Z,98776.98
2018-09-21T12:00:30.017Z,98778.95
2018-09-21T12:03:00.576Z,98775.76
2018-09-21T12:05:30.847Z,98772.28
2018-09-21T12:08:03.465Z,98776.71
2018-09-21T12:10:34.081Z,98771.19
2018-09-21T12:13:05.434Z,98775.44
2018-09-21T12:15:36.677Z,98771.38
2018-09-21T12:18:07.215Z,98762.80
2018-09-21T12:20:38.004Z,98766.00
2018-09-21T12:23:09.925Z,98766.30
2018-09-21T12:25:40.439Z,98761.66
2018-09-21T12:28:10.956Z,98766.14
2018-09-21T12:30:41.659Z,98758.59
2018-09-21T12:33:12.836Z,98753.64
2018-09-21T12:35:43.068Z,98750.56
2018-09-21T12:38:13.560Z,98745.61
2018-09-21T12:40:44.204Z,98749.53
2018-09-21T12:43:15.914Z,98748.11
2018-09-21T12:45:46.544Z,98750.69
2018-09-21T12:48:16.772Z,98745.31
2018-09-21T12:50:47.362Z,98741.78
2018-09-21T12:53:17.995Z,98732.06
2018-09-21T12:55:48.540Z,98727.77
2018-09-21T12:58:18.955Z,98731.42
2018-09-21T13:00:52.668Z,98725.47
2018-09-21T13:03:23.979Z,98718.71
2018-09-21T13:05:57.984Z,98717.17
2018-09-21T13:08:28.730Z,98720.84
2018-09-21T13:10:59.392Z,98720.64
2018-09-21T13:13:29.928Z,98715.44
2018-09-21T13:16:01.229Z,98710.75
2018-09-21T13:18:31.758Z,98708.20
2018-09-21T13:21:02.018Z,98707.41
2018-09-21T13:23:32.237Z,98683.23
2018-09-21T13:26:02.825Z,98700.22
2018-09-21T13:28:34.219Z,98701.41
2018-09-21T13:31:05.120Z,98693.67
2018-09-21T13:33:35.665Z,98689.44
2018-09-21T13:36:06.679Z,98686.70
2018-09-21T13:38:37.195Z,98670.05
2018-09-21T13:41:07.727Z,98682.50
2018-09-21T13:43:38.284Z,98680.94
2018-09-21T13:46:09.746Z,98676.90
2018-09-21T13:48:40.320Z,98676.95
2018-09-21T13:51:11.034Z,98683.16
2018-09-21T13:53:41.525Z,98669.82
2018-09-21T13:56:12.159Z,98674.03
2018-09-21T13:58:42.689Z,98663.00
2018-09-21T14:01:12.899Z,98665.52
2018-09-21T14:03:43.409Z,98659.00
2018-09-21T14:06:13.612Z,98663.73
2018-09-21T14:08:44.434Z,98659.35
2018-09-21T14:11:15.331Z,98663.67
2018-09-21T14:13:45.546Z,98661.91
2018-09-21T14:16:16.106Z,98563.83
2018-09-21T14:18:46.308Z,98653.80
2018-09-21T14:21:16.556Z,98662.67
2018-09-21T14:23:47.326Z,98653.85
2018-09-21T14:26:18.140Z,98646.61
2018-09-21T14:28:48.536Z,98649.37
2018-09-21T14:31:19.031Z,98647.34
2018-09-21T14:33:50.623Z,98639.63
2018-09-21T14:36:21.136Z,98642.02
2018-09-21T14:38:51.771Z,98636.78
2018-09-21T14:41:22.290Z,98638.15
2018-09-21T14:43:53.409Z,98634.38
2018-09-21T14:46:24.232Z,98634.44
2018-09-21T14:48:54.776Z,98633.92
2018-09-21T14:51:25.396Z,98629.04
2018-09-21T14:53:55.884Z,98628.07
2018-09-21T14:56:26.500Z,98630.61
2018-09-21T14:58:57.285Z,98630.95
2018-09-21T15:01:27.500Z,98624.02
2018-09-21T15:03:58.312Z,98626.66
2018-09-21T15:06:28.912Z,98623.73
2018-09-21T15:08:59.660Z,98625.31
2018-09-21T15:11:30.331Z,98618.20
2018-09-21T15:14:00.885Z,98613.20
2018-09-21T15:16:31.588Z,98615.09
2018-09-21T15:19:02.209Z,98616.66
2018-09-21T15:21:32.488Z,98612.11
2018-09-21T15:24:03.521Z,98611.84
2018-09-21T15:26:34.191Z,98610.49
2018-09-21T15:29:04.801Z,98611.31
2018-09-21T15:31:35.044Z,98610.33
2018-09-21T15:34:05.768Z,98607.24
2018-09-21T15:36:36.402Z,98606.08
2018-09-21T15:39:09.104Z,98602.73
2018-09-21T15:41:39.833Z,98611.13
2018-09-21T15:44:10.688Z,98611.07
2018-09-21T15:46:41.294Z,98612.27
2018-09-21T15:49:11.864Z,98612.16
2018-09-21T15:51:42.426Z,98605.00
2018-09-21T15:54:13.873Z,98602.98
2018-09-21T15:56:44.651Z,98602.02
2018-09-21T15:59:15.471Z,98598.33
2018-09-21T16:01:45.696Z,98602.11
2018-09-21T16:04:16.257Z,98595.85
2018-09-21T16:06:46.756Z,98603.59
2018-09-21T16:09:17.392Z,98607.08
2018-09-21T16:11:47.672Z,98426.56
2018-09-21T16:14:17.957Z,98603.12
2018-09-21T16:16:48.619Z,98612.22
2018-09-21T16:19:18.865Z,98610.64
2018-09-21T16:21:49.580Z,98602.88
2018-09-21T16:24:20.083Z,98601.97
2018-09-21T16:26:50.559Z,98611.61
2018-09-21T16:29:21.067Z,98609.28
2018-09-21T16:31:51.776Z,98598.81
2018-09-21T16:34:22.295Z,98599.17
2018-09-21T16:36:52.817Z,98600.59
2018-09-21T16:39:23.513Z,98602.00
2018-09-21T16:41:54.347Z,98602.00
2018-09-21T16:44:25.381Z,98600.73
2018-09-21T16:46:56.034Z,98601.52
2018-09-21T16:49:26.681Z,98606.75
2018-09-21T16:51:57.977Z,98602.70
2018-09-21T16:54:28.757Z,98599.24
2018-09-21T16:56:59.570Z,98600.03
2018-09-21T16:59:30.366Z,98598.36
2018-09-21T17:02:00.854Z,98604.88
2018-09-21T17:04:31.502Z,98603.45
2018-09-21T17:07:02.249Z,98592.29
2018-09-21T17:09:32.922Z,98595.75
2018-09-21T17:12:03.463Z,98602.23
2018-09-21T17:14:34.089Z,98596.11
2018-09-21T17:17:04.625Z,98603.02
2018-09-21T17:19:35.140Z,98595.06
2018-09-21T17:22:05.833Z,98597.31
2018-09-21T17:24:36.662Z,98601.67
2018-09-21T17:27:07.537Z,98605.27
2018-09-21T17:29:38.228Z,98610.95
2018-09-21T17:32:09.464Z,98605.09
2018-09-21T17:34:40.563Z,98605.52
2018-09-21T17:37:11.860Z,98611.77
2018-09-21T17:39:42.155Z,98610.47
2018-09-21T17:42:12.386Z,98616.36
2018-09-21T17:44:43.129Z,98613.02
2018-09-21T17:47:13.365Z,98618.41
2018-09-21T17:49:43.913Z,98579.59
2018-09-21T17:52:14.564Z,98607.39
2018-09-21T17:54:45.380Z,98611.80
2018-09-21T17:57:15.957Z,98612.13
2018-09-21T17:59:46.453Z,98611.69
2018-09-21T18:02:16.994Z,98608.64
2018-09-21T18:04:47.268Z,98606.75
2018-09-21T18:07:20.807Z,98611.02
2018-09-21T18:09:52.876Z,98609.53
2018-09-21T18:12:23.438Z,98613.42
2018-09-21T18:14:53.967Z,98606.15
2018-09-21T18:17:24.813Z,98598.66
2018-09-21T18:19:55.692Z,98600.41
2018-09-21T18:22:26.268Z,98606.27
2018-09-21T18:24:56.916Z,98604.63
2018-09-21T18:27:27.483Z,98602.13
2018-09-21T18:29:58.024Z,98599.24
2018-09-21T18:32:28.528Z,98611.14
2018-09-21T18:34:58.778Z,98607.32
2018-09-21T18:37:29.405Z,98607.19
2018-09-21T18:40:00.018Z,98606.87
2018-09-21T18:42:30.396Z,98603.36
2018-09-21T18:45:01.078Z,98604.83
2018-09-21T18:47:31.345Z,98611.25
2018-09-21T18:50:01.622Z,98612.42
2018-09-21T18:52:32.816Z,98611.89
2018-09-21T18:55:06.619Z,98611.39
2018-09-21T18:57:37.179Z,98621.98
2018-09-21T19:00:08.235Z,98619.80
2018-09-21T19:02:38.908Z,98624.48
2018-09-21T19:05:14.216Z,98624.45
2018-09-21T19:07:44.880Z,98629.49
2018-09-21T19:10:15.315Z,98630.34
2018-09-21T19:12:45.941Z,98630.84
2018-09-21T19:15:19.979Z,98635.95
2018-09-21T19:17:51.183Z,98635.95
2018-09-21T19:20:21.768Z,98635.95
2018-09-21T19:22:51.994Z,98629.80
2018-09-21T19:25:22.686Z,98629.67
2018-09-21T19:27:53.116Z,98627.56
2018-09-21T19:30:24.124Z,98631.31
2018-09-21T19:32:54.752Z,98633.22
2018-09-21T19:35:25.490Z,98632.53
2018-09-21T19:37:56.160Z,98632.42
2018-09-21T19:40:26.999Z,98632.49
2018-09-21T19:42:57.821Z,98638.65
2018-09-21T19:45:28.619Z,98633.08
2018-09-21T19:47:59.045Z,98642.73
2018-09-21T19:50:29.698Z,98637.88
2018-09-21T19:53:00.264Z,98639.33
2018-09-21T19:55:30.969Z,98636.56
2018-09-21T19:58:01.304Z,98634.40
2018-09-21T20:00:31.568Z,98636.06
2018-09-21T20:03:01.792Z,98640.97
2018-09-21T20:05:32.079Z,98643.36
2018-09-21T20:08:02.636Z,98650.42
2018-09-21T20:10:35.630Z,98655.95
2018-09-21T20:13:08.060Z,98652.23
2018-09-21T20:15:38.722Z,98652.02
2018-09-21T20:18:09.329Z,98641.40
2018-09-21T20:20:40.136Z,98647.97
2018-09-21T20:23:10.732Z,98643.99
2018-09-21T20:25:41.043Z,98644.35
2018-09-21T20:28:11.627Z,98643.87
2018-09-21T20:31:50.418Z,98638.97
2018-09-21T20:34:20.928Z,98646.39
2018-09-21T20:36:52.048Z,98649.05
2018-09-21T20:39:22.659Z,98651.91
2018-09-21T20:41:53.075Z,98654.77
2018-09-21T20:44:23.713Z,98661.44
2018-09-21T20:46:54.317Z,98660.59
2018-09-21T20:49:25.158Z,98659.48
2018-09-21T20:51:55.982Z,98662.47
2018-09-21T20:54:27.493Z,98647.27
2018-09-21T20:56:59.100Z,98664.70
2018-09-21T20:59:29.853Z,98668.98
2018-09-21T21:02:00.592Z,98666.07
2018-09-21T21:04:30.899Z,98668.97
2018-09-21T21:07:01.451Z,98668.67
2018-09-21T21:09:31.749Z,98678.21
2018-09-21T21:12:02.805Z,98673.52
2018-09-21T21:14:33.723Z,98669.77
2018-09-21T21:17:04.261Z,98675.27
2018-09-21T21:19:34.984Z,98671.28
2018-09-21T21:22:20.136Z,98675.66
2018-09-21T21:24:51.054Z,98671.37
2018-09-21T21:27:21.784Z,98674.59
2018-09-21T21:29:52.317Z,98673.16
2018-09-21T21:32:22.702Z,98673.64
2018-09-21T21:34:53.405Z,98679.59
2018-09-21T21:37:23.971Z,98685.97
2018-09-21T21:39:54.583Z,98694.84
2018-09-21T21:42:25.363Z,98704.54
2018-09-21T21:44:55.941Z,98723.75
2018-09-21T21:47:26.579Z,98761.83
2018-09-21T21:49:56.903Z,98845.45
2018-09-21T21:52:27.502Z,98824.79
2018-09-21T21:54:58.618Z,98836.91
2018-09-21T21:57:29.168Z,98831.93
2018-09-21T21:59:59.628Z,98845.41
2018-09-21T22:02:33.985Z,98851.33
2018-09-21T22:05:07.004Z,98862.09
2018-09-21T22:07:38.769Z,98876.19
2018-09-21T22:10:09.692Z,98884.44
2018-09-21T22:14:49.399Z,98887.73
2018-09-21T22:17:19.934Z,98882.09
2018-09-21T22:19:50.451Z,98889.45
2018-09-21T22:22:20.980Z,98889.91
2018-09-21T22:24:51.537Z,98901.02
2018-09-21T22:27:22.165Z,98891.89
2018-09-21T22:29:54.185Z,98897.33
2018-09-21T22:32:24.733Z,98892.42
2018-09-21T22:34:55.376Z,98902.41
2018-09-21T22:37:26.201Z,98909.09
2018-09-21T22:39:56.911Z,98909.09
2018-09-21T22:42:27.462Z,98897.16
2018-09-21T22:44:58.069Z,98916.21
2018-09-21T22:47:28.946Z,98912.81
2018-09-21T22:49:59.233Z,98914.50
2018-09-21T22:52:29.780Z,98927.42
2018-09-21T22:55:00.021Z,98947.97
2018-09-21T22:57:31.315Z,98934.38
2018-09-21T23:00:01.821Z,98933.52
2018-09-21T23:02:34.675Z,98933.84
2018-09-21T23:05:07.325Z,98928.50
2018-09-21T23:07:37.928Z,98922.52
2018-09-21T23:10:10.947Z,98919.59
2018-09-21T23:12:41.149Z,98917.08
2018-09-21T23:15:12.645Z,98911.23
2018-09-21T23:17:42.888Z,98913.36
2018-09-21T23:20:13.455Z,98923.54
2018-09-21T23:22:43.766Z,98909.66
2018-09-21T23:25:14.364Z,98902.98
2018-09-21T23:27:45.011Z,98902.00
2018-09-21T23:30:15.535Z,98884.27
2018-09-21T23:32:46.371Z,98914.63
2018-09-21T23:35:16.899Z,98929.48
2018-09-21T23:37:47.674Z,98923.59
2018-09-21T23:40:17.947Z,98923.95
2018-09-21T23:42:48.709Z,98927.07
2018-09-21T23:45:19.233Z,98916.17
2018-09-21T23:47:49.625Z,98911.58
2018-09-21T23:50:20.260Z,98920.06
2018-09-21T23:52:51.211Z,98930.17
2018-09-21T23:55:21.484Z,98936.86
2018-09-21T23:57:51.987Z,98946.22
